sensor_id;sensor_type;location;lat;lon;timestamp;P1;durP1;ratioP1;P2;durP2;ratioP2
18520;SDS011;9390;51.244;6.982;2024-02-16T00:01:41;8.77;;;2.03;;
18520;SDS011;9390;51.244;6.982;2024-02-16T00:04:13;4.07;;;1.63;;
18520;SDS011;9390;51.244;6.982;2024-02-16T00:06:44;5.32;;;1.90;;
18520;SDS011;9390;51.244;6.982;2024-02-16T00:09:16;4.72;;;1.67;;
18520;SDS011;9390;51.244;6.982;2024-02-16T00:11:50;3.55;;;1.75;;
18520;SDS011;9390;51.244;6.982;2024-02-16T00:14:23;5.80;;;1.73;;
18520;SDS011;9390;51.244;6.982;2024-02-16T00:16:55;3.92;;;1.70;;
18520;SDS011;9390;51.244;6.982;2024-02-16T00:19:26;6.25;;;2.05;;
18520;SDS011;9390;51.244;6.982;2024-02-16T00:21:58;5.40;;;1.80;;
18520;SDS011;9390;51.244;6.982;2024-02-16T00:24:30;3.22;;;1.80;;
18520;SDS011;9390;51.244;6.982;2024-02-16T00:27:01;7.22;;;1.88;;
18520;SDS011;9390;51.244;6.982;2024-02-16T00:29:34;5.93;;;1.90;;
18520;SDS011;9390;51.244;6.982;2024-02-16T00:32:08;3.45;;;1.52;;
18520;SDS011;9390;51.244;6.982;2024-02-16T00:34:39;5.53;;;1.70;;
18520;SDS011;9390;51.244;6.982;2024-02-16T00:37:11;5.28;;;2.13;;
18520;SDS011;9390;51.244;6.982;2024-02-16T00:39:42;7.43;;;1.92;;
18520;SDS011;9390;51.244;6.982;2024-02-16T00:42:14;5.20;;;1.98;;
18520;SDS011;9390;51.244;6.982;2024-02-16T00:44:46;5.65;;;1.48;;
18520;SDS011;9390;51.244;6.982;2024-02-16T00:47:18;3.75;;;1.45;;
18520;SDS011;9390;51.244;6.982;2024-02-16T00:49:49;5.13;;;1.70;;
18520;SDS011;9390;51.244;6.982;2024-02-16T00:52:20;5.13;;;2.10;;
18520;SDS011;9390;51.244;6.982;2024-02-16T00:54:52;7.72;;;1.80;;
18520;SDS011;9390;51.244;6.982;2024-02-16T00:57:23;4.50;;;1.50;;
18520;SDS011;9390;51.244;6.982;2024-02-16T00:59:56;4.63;;;1.77;;
18520;SDS011;9390;51.244;6.982;2024-02-16T01:02:28;5.78;;;2.25;;
18520;SDS011;9390;51.244;6.982;2024-02-16T01:04:59;4.55;;;1.83;;
18520;SDS011;9390;51.244;6.982;2024-02-16T01:07:32;6.55;;;1.65;;
18520;SDS011;9390;51.244;6.982;2024-02-16T01:10:06;5.07;;;1.80;;
18520;SDS011;9390;51.244;6.982;2024-02-16T01:12:38;6.95;;;1.90;;
18520;SDS011;9390;51.244;6.982;2024-02-16T01:15:10;5.55;;;1.98;;
18520;SDS011;9390;51.244;6.982;2024-02-16T01:17:42;5.00;;;1.83;;
18520;SDS011;9390;51.244;6.982;2024-02-16T01:20:13;5.70;;;2.00;;
18520;SDS011;9390;51.244;6.982;2024-02-16T01:22:45;4.28;;;1.70;;
18520;SDS011;9390;51.244;6.982;2024-02-16T01:25:16;7.28;;;1.83;;
18520;SDS011;9390;51.244;6.982;2024-02-16T01:27:47;3.95;;;1.70;;
18520;SDS011;9390;51.244;6.982;2024-02-16T01:30:20;4.53;;;1.67;;
18520;SDS011;9390;51.244;6.982;2024-02-16T01:32:51;7.32;;;1.88;;
18520;SDS011;9390;51.244;6.982;2024-02-16T01:35:23;5.45;;;1.83;;
18520;SDS011;9390;51.244;6.982;2024-02-16T01:37:54;7.95;;;1.70;;
18520;SDS011;9390;51.244;6.982;2024-02-16T01:40:25;4.80;;;1.83;;
18520;SDS011;9390;51.244;6.982;2024-02-16T01:42:57;6.28;;;1.60;;
18520;SDS011;9390;51.244;6.982;2024-02-16T01:45:30;5.30;;;1.90;;
18520;SDS011;9390;51.244;6.982;2024-02-16T01:48:01;6.20;;;1.88;;
18520;SDS011;9390;51.244;6.982;2024-02-16T01:50:32;3.72;;;1.60;;
18520;SDS011;9390;51.244;6.982;2024-02-16T01:53:04;5.82;;;1.92;;
18520;SDS011;9390;51.244;6.982;2024-02-16T01:55:35;5.90;;;2.17;;
18520;SDS011;9390;51.244;6.982;2024-02-16T01:58:07;4.07;;;1.77;;
18520;SDS011;9390;51.244;6.982;2024-02-16T02:00:40;4.32;;;1.60;;
18520;SDS011;9390;51.244;6.982;2024-02-16T02:03:12;5.93;;;1.90;;
18520;SDS011;9390;51.244;6.982;2024-02-16T02:05:45;6.75;;;2.03;;
18520;SDS011;9390;51.244;6.982;2024-02-16T02:08:17;4.57;;;1.70;;
18520;SDS011;9390;51.244;6.982;2024-02-16T02:10:49;5.20;;;1.73;;
18520;SDS011;9390;51.244;6.982;2024-02-16T02:13:20;5.90;;;2.25;;
18520;SDS011;9390;51.244;6.982;2024-02-16T02:15:54;5.43;;;1.88;;
18520;SDS011;9390;51.244;6.982;2024-02-16T02:18:26;4.63;;;2.00;;
18520;SDS011;9390;51.244;6.982;2024-02-16T02:20:59;5.18;;;1.75;;
18520;SDS011;9390;51.244;6.982;2024-02-16T02:23:32;3.92;;;1.77;;
18520;SDS011;9390;51.244;6.982;2024-02-16T02:26:04;4.50;;;1.50;;
18520;SDS011;9390;51.244;6.982;2024-02-16T02:28:35;3.60;;;1.77;;
18520;SDS011;9390;51.244;6.982;2024-02-16T02:31:06;6.50;;;1.73;;
18520;SDS011;9390;51.244;6.982;2024-02-16T02:33:39;8.27;;;2.13;;
18520;SDS011;9390;51.244;6.982;2024-02-16T02:36:10;6.18;;;1.98;;
18520;SDS011;9390;51.244;6.982;2024-02-16T02:38:43;5.78;;;1.92;;
18520;SDS011;9390;51.244;6.982;2024-02-16T02:41:15;5.95;;;2.20;;
18520;SDS011;9390;51.244;6.982;2024-02-16T02:43:49;5.72;;;2.15;;
18520;SDS011;9390;51.244;6.982;2024-02-16T02:46:22;7.10;;;2.22;;
18520;SDS011;9390;51.244;6.982;2024-02-16T02:48:53;7.60;;;2.05;;
18520;SDS011;9390;51.244;6.982;2024-02-16T02:51:25;5.47;;;1.85;;
18520;SDS011;9390;51.244;6.982;2024-02-16T02:53:58;5.78;;;2.05;;
18520;SDS011;9390;51.244;6.982;2024-02-16T02:56:29;7.03;;;1.85;;
18520;SDS011;9390;51.244;6.982;2024-02-16T02:59:02;5.88;;;1.85;;
18520;SDS011;9390;51.244;6.982;2024-02-16T03:01:36;5.88;;;1.75;;
18520;SDS011;9390;51.244;6.982;2024-02-16T03:04:07;6.28;;;1.88;;
18520;SDS011;9390;51.244;6.982;2024-02-16T03:06:39;4.18;;;1.60;;
18520;SDS011;9390;51.244;6.982;2024-02-16T03:09:12;4.30;;;2.15;;
18520;SDS011;9390;51.244;6.982;2024-02-16T03:11:44;6.35;;;1.85;;
18520;SDS011;9390;51.244;6.982;2024-02-16T03:14:15;4.97;;;1.80;;
18520;SDS011;9390;51.244;6.982;2024-02-16T03:16:47;5.65;;;1.92;;
18520;SDS011;9390;51.244;6.982;2024-02-16T03:19:18;4.35;;;1.85;;
18520;SDS011;9390;51.244;6.982;2024-02-16T03:21:49;4.32;;;1.92;;
18520;SDS011;9390;51.244;6.982;2024-02-16T03:24:22;5.80;;;2.00;;
18520;SDS011;9390;51.244;6.982;2024-02-16T03:26:53;5.38;;;2.28;;
18520;SDS011;9390;51.244;6.982;2024-02-16T03:29:25;7.60;;;1.95;;
18520;SDS011;9390;51.244;6.982;2024-02-16T03:31:56;4.85;;;1.85;;
18520;SDS011;9390;51.244;6.982;2024-02-16T03:34:28;4.03;;;1.65;;
18520;SDS011;9390;51.244;6.982;2024-02-16T03:36:59;5.85;;;2.03;;
18520;SDS011;9390;51.244;6.982;2024-02-16T03:39:32;6.63;;;1.95;;
18520;SDS011;9390;51.244;6.982;2024-02-16T03:42:03;6.28;;;2.30;;
18520;SDS011;9390;51.244;6.982;2024-02-16T03:44:35;7.20;;;2.00;;
18520;SDS011;9390;51.244;6.982;2024-02-16T03:47:06;7.22;;;2.25;;
18520;SDS011;9390;51.244;6.982;2024-02-16T03:49:39;6.95;;;2.00;;
18520;SDS011;9390;51.244;6.982;2024-02-16T03:52:10;4.25;;;1.75;;
18520;SDS011;9390;51.244;6.982;2024-02-16T03:54:44;5.90;;;1.88;;
18520;SDS011;9390;51.244;6.982;2024-02-16T03:57:18;5.05;;;1.70;;
18520;SDS011;9390;51.244;6.982;2024-02-16T03:59:49;5.78;;;2.08;;
18520;SDS011;9390;51.244;6.982;2024-02-16T04:02:20;3.70;;;1.75;;
18520;SDS011;9390;51.244;6.982;2024-02-16T04:04:52;7.22;;;2.03;;
18520;SDS011;9390;51.244;6.982;2024-02-16T04:07:23;6.03;;;1.80;;
18520;SDS011;9390;51.244;6.982;2024-02-16T04:09:56;5.97;;;1.98;;
18520;SDS011;9390;51.244;6.982;2024-02-16T04:12:27;7.70;;;2.00;;
18520;SDS011;9390;51.244;6.982;2024-02-16T04:14:59;4.22;;;1.90;;
18520;SDS011;9390;51.244;6.982;2024-02-16T04:17:30;8.35;;;1.95;;
18520;SDS011;9390;51.244;6.982;2024-02-16T04:20:02;5.32;;;1.90;;
18520;SDS011;9390;51.244;6.982;2024-02-16T04:22:34;4.90;;;1.98;;
18520;SDS011;9390;51.244;6.982;2024-02-16T04:25:09;7.32;;;1.88;;
18520;SDS011;9390;51.244;6.982;2024-02-16T04:27:40;7.65;;;2.10;;
18520;SDS011;9390;51.244;6.982;2024-02-16T04:30:11;7.78;;;2.22;;
18520;SDS011;9390;51.244;6.982;2024-02-16T04:32:43;5.18;;;2.03;;
18520;SDS011;9390;51.244;6.982;2024-02-16T04:35:14;8.30;;;3.33;;
18520;SDS011;9390;51.244;6.982;2024-02-16T04:37:46;5.57;;;2.03;;
18520;SDS011;9390;51.244;6.982;2024-02-16T04:40:19;5.60;;;2.05;;
18520;SDS011;9390;51.244;6.982;2024-02-16T04:42:50;4.00;;;1.65;;
18520;SDS011;9390;51.244;6.982;2024-02-16T04:45:22;4.70;;;1.80;;
18520;SDS011;9390;51.244;6.982;2024-02-16T04:47:53;6.75;;;1.80;;
18520;SDS011;9390;51.244;6.982;2024-02-16T04:50:25;5.55;;;2.17;;
18520;SDS011;9390;51.244;6.982;2024-02-16T04:52:57;6.87;;;2.00;;
18520;SDS011;9390;51.244;6.982;2024-02-16T04:55:29;6.68;;;2.42;;
18520;SDS011;9390;51.244;6.982;2024-02-16T04:58:01;5.13;;;1.70;;
18520;SDS011;9390;51.244;6.982;2024-02-16T05:00:34;7.43;;;1.90;;
18520;SDS011;9390;51.244;6.982;2024-02-16T05:03:06;6.35;;;2.13;;
18520;SDS011;9390;51.244;6.982;2024-02-16T05:05:37;5.68;;;1.90;;
18520;SDS011;9390;51.244;6.982;2024-02-16T05:08:09;6.72;;;1.85;;
18520;SDS011;9390;51.244;6.982;2024-02-16T05:10:41;5.38;;;2.10;;
18520;SDS011;9390;51.244;6.982;2024-02-16T05:13:13;5.65;;;2.25;;
18520;SDS011;9390;51.244;6.982;2024-02-16T05:15:44;5.47;;;1.98;;
18520;SDS011;9390;51.244;6.982;2024-02-16T05:18:21;8.48;;;2.70;;
18520;SDS011;9390;51.244;6.982;2024-02-16T05:20:52;4.05;;;1.65;;
18520;SDS011;9390;51.244;6.982;2024-02-16T05:23:24;5.68;;;2.10;;
18520;SDS011;9390;51.244;6.982;2024-02-16T05:25:56;6.88;;;2.28;;
18520;SDS011;9390;51.244;6.982;2024-02-16T05:28:28;6.28;;;2.17;;
18520;SDS011;9390;51.244;6.982;2024-02-16T05:31:03;4.80;;;2.10;;
18520;SDS011;9390;51.244;6.982;2024-02-16T05:33:43;10.10;;;2.47;;
18520;SDS011;9390;51.244;6.982;2024-02-16T05:36:16;5.35;;;2.08;;
18520;SDS011;9390;51.244;6.982;2024-02-16T05:38:48;6.60;;;2.55;;
18520;SDS011;9390;51.244;6.982;2024-02-16T05:41:21;5.70;;;2.15;;
18520;SDS011;9390;51.244;6.982;2024-02-16T05:43:52;6.40;;;2.20;;
18520;SDS011;9390;51.244;6.982;2024-02-16T05:46:24;5.65;;;2.25;;
18520;SDS011;9390;51.244;6.982;2024-02-16T05:48:55;6.53;;;2.55;;
18520;SDS011;9390;51.244;6.982;2024-02-16T05:51:26;8.00;;;1.92;;
18520;SDS011;9390;51.244;6.982;2024-02-16T05:53:58;4.07;;;1.73;;
18520;SDS011;9390;51.244;6.982;2024-02-16T05:56:30;7.03;;;2.25;;
18520;SDS011;9390;51.244;6.982;2024-02-16T05:59:07;4.95;;;2.25;;
18520;SDS011;9390;51.244;6.982;2024-02-16T06:01:38;3.55;;;1.70;;
18520;SDS011;9390;51.244;6.982;2024-02-16T06:04:09;8.57;;;2.17;;
18520;SDS011;9390;51.244;6.982;2024-02-16T06:06:41;5.10;;;2.22;;
18520;SDS011;9390;51.244;6.982;2024-02-16T06:09:12;4.32;;;1.95;;
18520;SDS011;9390;51.244;6.982;2024-02-16T06:11:45;4.43;;;2.13;;
18520;SDS011;9390;51.244;6.982;2024-02-16T06:14:16;8.93;;;2.25;;
18520;SDS011;9390;51.244;6.982;2024-02-16T06:17:00;7.07;;;2.30;;
18520;SDS011;9390;51.244;6.982;2024-02-16T06:19:31;7.15;;;2.42;;
18520;SDS011;9390;51.244;6.982;2024-02-16T06:22:02;7.70;;;2.28;;
18520;SDS011;9390;51.244;6.982;2024-02-16T06:24:34;6.35;;;2.22;;
18520;SDS011;9390;51.244;6.982;2024-02-16T06:27:07;5.75;;;2.58;;
18520;SDS011;9390;51.244;6.982;2024-02-16T06:32:10;6.70;;;2.42;;
18520;SDS011;9390;51.244;6.982;2024-02-16T06:34:42;5.35;;;2.15;;
18520;SDS011;9390;51.244;6.982;2024-02-16T06:39:46;6.28;;;2.40;;
18520;SDS011;9390;51.244;6.982;2024-02-16T06:42:19;10.05;;;2.30;;
18520;SDS011;9390;51.244;6.982;2024-02-16T06:44:53;6.82;;;2.40;;
18520;SDS011;9390;51.244;6.982;2024-02-16T06:47:25;5.97;;;1.80;;
18520;SDS011;9390;51.244;6.982;2024-02-16T06:49:56;5.85;;;2.22;;
18520;SDS011;9390;51.244;6.982;2024-02-16T06:52:27;6.10;;;2.10;;
18520;SDS011;9390;51.244;6.982;2024-02-16T06:54:59;6.22;;;2.10;;
18520;SDS011;9390;51.244;6.982;2024-02-16T06:57:32;7.93;;;2.40;;
18520;SDS011;9390;51.244;6.982;2024-02-16T07:00:04;7.93;;;2.90;;
18520;SDS011;9390;51.244;6.982;2024-02-16T07:02:38;8.07;;;2.60;;
18520;SDS011;9390;51.244;6.982;2024-02-16T07:05:11;5.43;;;2.20;;
18520;SDS011;9390;51.244;6.982;2024-02-16T07:07:43;6.35;;;2.42;;
18520;SDS011;9390;51.244;6.982;2024-02-16T07:10:15;6.45;;;2.03;;
18520;SDS011;9390;51.244;6.982;2024-02-16T07:12:47;6.55;;;2.20;;
18520;SDS011;9390;51.244;6.982;2024-02-16T07:15:19;7.30;;;2.58;;
18520;SDS011;9390;51.244;6.982;2024-02-16T07:17:50;4.78;;;2.00;;
18520;SDS011;9390;51.244;6.982;2024-02-16T07:20:21;6.22;;;2.15;;
18520;SDS011;9390;51.244;6.982;2024-02-16T07:22:53;6.10;;;2.40;;
18520;SDS011;9390;51.244;6.982;2024-02-16T07:25:24;6.10;;;2.00;;
18520;SDS011;9390;51.244;6.982;2024-02-16T07:27:57;6.95;;;2.28;;
18520;SDS011;9390;51.244;6.982;2024-02-16T07:30:28;7.82;;;2.20;;
18520;SDS011;9390;51.244;6.982;2024-02-16T07:32:59;5.70;;;2.03;;
18520;SDS011;9390;51.244;6.982;2024-02-16T07:35:31;7.03;;;2.22;;
18520;SDS011;9390;51.244;6.982;2024-02-16T07:38:03;7.15;;;2.35;;
18520;SDS011;9390;51.244;6.982;2024-02-16T07:40:34;8.00;;;2.47;;
18520;SDS011;9390;51.244;6.982;2024-02-16T07:43:07;5.95;;;2.35;;
18520;SDS011;9390;51.244;6.982;2024-02-16T07:45:38;6.93;;;2.30;;
18520;SDS011;9390;51.244;6.982;2024-02-16T07:48:10;7.95;;;2.40;;
18520;SDS011;9390;51.244;6.982;2024-02-16T07:50:41;5.72;;;2.40;;
18520;SDS011;9390;51.244;6.982;2024-02-16T07:53:13;7.30;;;2.40;;
18520;SDS011;9390;51.244;6.982;2024-02-16T07:55:45;5.77;;;2.67;;
18520;SDS011;9390;51.244;6.982;2024-02-16T07:58:17;4.93;;;2.15;;
18520;SDS011;9390;51.244;6.982;2024-02-16T08:00:49;7.53;;;2.13;;
18520;SDS011;9390;51.244;6.982;2024-02-16T08:03:20;7.18;;;2.13;;
18520;SDS011;9390;51.244;6.982;2024-02-16T08:05:52;6.10;;;2.20;;
18520;SDS011;9390;51.244;6.982;2024-02-16T08:08:23;6.60;;;2.33;;
18520;SDS011;9390;51.244;6.982;2024-02-16T08:10:54;7.93;;;2.47;;
18520;SDS011;9390;51.244;6.982;2024-02-16T08:13:27;5.15;;;2.13;;
18520;SDS011;9390;51.244;6.982;2024-02-16T08:15:59;6.60;;;2.58;;
18520;SDS011;9390;51.244;6.982;2024-02-16T08:18:30;6.15;;;2.28;;
18520;SDS011;9390;51.244;6.982;2024-02-16T08:21:01;6.90;;;2.30;;
18520;SDS011;9390;51.244;6.982;2024-02-16T08:23:33;5.60;;;1.95;;
18520;SDS011;9390;51.244;6.982;2024-02-16T08:26:04;6.55;;;2.13;;
18520;SDS011;9390;51.244;6.982;2024-02-16T08:28:37;7.45;;;2.00;;
18520;SDS011;9390;51.244;6.982;2024-02-16T08:31:09;4.85;;;1.98;;
18520;SDS011;9390;51.244;6.982;2024-02-16T08:33:40;7.82;;;2.60;;
18520;SDS011;9390;51.244;6.982;2024-02-16T08:36:13;4.03;;;1.93;;
18520;SDS011;9390;51.244;6.982;2024-02-16T08:38:44;4.97;;;1.90;;
18520;SDS011;9390;51.244;6.982;2024-02-16T08:41:16;4.90;;;2.15;;
18520;SDS011;9390;51.244;6.982;2024-02-16T08:43:48;9.52;;;3.15;;
18520;SDS011;9390;51.244;6.982;2024-02-16T08:46:20;6.10;;;2.10;;
18520;SDS011;9390;51.244;6.982;2024-02-16T08:48:51;5.53;;;2.03;;
18520;SDS011;9390;51.244;6.982;2024-02-16T08:51:23;5.15;;;2.28;;
18520;SDS011;9390;51.244;6.982;2024-02-16T08:53:54;5.18;;;2.00;;
18520;SDS011;9390;51.244;6.982;2024-02-16T08:56:26;9.13;;;2.25;;
18520;SDS011;9390;51.244;6.982;2024-02-16T08:58:59;5.57;;;2.15;;
18520;SDS011;9390;51.244;6.982;2024-02-16T09:01:31;5.90;;;2.00;;
18520;SDS011;9390;51.244;6.982;2024-02-16T09:04:02;5.95;;;2.20;;
18520;SDS011;9390;51.244;6.982;2024-02-16T09:06:34;6.50;;;2.30;;
18520;SDS011;9390;51.244;6.982;2024-02-16T09:09:05;7.70;;;2.47;;
18520;SDS011;9390;51.244;6.982;2024-02-16T09:11:37;6.13;;;2.15;;
18520;SDS011;9390;51.244;6.982;2024-02-16T09:14:10;7.10;;;2.38;;
18520;SDS011;9390;51.244;6.982;2024-02-16T09:16:41;5.50;;;2.35;;
18520;SDS011;9390;51.244;6.982;2024-02-16T09:19:13;5.68;;;2.70;;
18520;SDS011;9390;51.244;6.982;2024-02-16T09:21:44;6.65;;;2.03;;
18520;SDS011;9390;51.244;6.982;2024-02-16T09:24:16;9.60;;;2.33;;
18520;SDS011;9390;51.244;6.982;2024-02-16T09:26:48;7.03;;;2.13;;
18520;SDS011;9390;51.244;6.982;2024-02-16T09:29:21;7.03;;;2.30;;
18520;SDS011;9390;51.244;6.982;2024-02-16T09:31:52;6.30;;;2.97;;
18520;SDS011;9390;51.244;6.982;2024-02-16T09:34:24;8.50;;;2.47;;
18520;SDS011;9390;51.244;6.982;2024-02-16T09:36:55;5.90;;;2.10;;
18520;SDS011;9390;51.244;6.982;2024-02-16T09:39:27;9.80;;;2.13;;
18520;SDS011;9390;51.244;6.982;2024-02-16T09:41:58;7.00;;;3.05;;
18520;SDS011;9390;51.244;6.982;2024-02-16T09:44:31;7.07;;;2.05;;
18520;SDS011;9390;51.244;6.982;2024-02-16T09:47:06;7.78;;;2.63;;
18520;SDS011;9390;51.244;6.982;2024-02-16T09:49:40;8.07;;;2.10;;
18520;SDS011;9390;51.244;6.982;2024-02-16T09:52:13;9.23;;;2.13;;
18520;SDS011;9390;51.244;6.982;2024-02-16T09:54:44;8.27;;;2.42;;
18520;SDS011;9390;51.244;6.982;2024-02-16T09:57:16;5.65;;;2.25;;
18520;SDS011;9390;51.244;6.982;2024-02-16T09:59:49;10.23;;;2.67;;
18520;SDS011;9390;51.244;6.982;2024-02-16T10:04:52;8.60;;;2.63;;
18520;SDS011;9390;51.244;6.982;2024-02-16T10:07:30;9.10;;;2.28;;
18520;SDS011;9390;51.244;6.982;2024-02-16T10:10:02;8.68;;;2.80;;
18520;SDS011;9390;51.244;6.982;2024-02-16T10:12:34;7.63;;;2.50;;
18520;SDS011;9390;51.244;6.982;2024-02-16T10:15:07;7.45;;;2.25;;
18520;SDS011;9390;51.244;6.982;2024-02-16T10:17:39;10.15;;;2.28;;
18520;SDS011;9390;51.244;6.982;2024-02-16T10:20:11;6.05;;;2.13;;
18520;SDS011;9390;51.244;6.982;2024-02-16T10:22:49;8.15;;;2.50;;
18520;SDS011;9390;51.244;6.982;2024-02-16T10:25:20;9.40;;;2.13;;
18520;SDS011;9390;51.244;6.982;2024-02-16T10:27:51;6.45;;;2.05;;
18520;SDS011;9390;51.244;6.982;2024-02-16T10:30:28;5.57;;;1.95;;
18520;SDS011;9390;51.244;6.982;2024-02-16T10:33:01;7.88;;;2.30;;
18520;SDS011;9390;51.244;6.982;2024-02-16T10:35:32;10.18;;;2.40;;
18520;SDS011;9390;51.244;6.982;2024-02-16T10:38:05;5.40;;;2.42;;
18520;SDS011;9390;51.244;6.982;2024-02-16T10:40:40;8.80;;;3.05;;
18520;SDS011;9390;51.244;6.982;2024-02-16T10:43:12;7.05;;;2.20;;
18520;SDS011;9390;51.244;6.982;2024-02-16T10:45:45;6.28;;;2.25;;
18520;SDS011;9390;51.244;6.982;2024-02-16T10:48:19;7.13;;;2.42;;
18520;SDS011;9390;51.244;6.982;2024-02-16T10:50:51;12.82;;;2.63;;
18520;SDS011;9390;51.244;6.982;2024-02-16T10:55:57;6.57;;;2.22;;
18520;SDS011;9390;51.244;6.982;2024-02-16T10:58:29;11.65;;;2.88;;
18520;SDS011;9390;51.244;6.982;2024-02-16T11:01:08;9.23;;;3.00;;
18520;SDS011;9390;51.244;6.982;2024-02-16T11:03:40;8.70;;;2.30;;
18520;SDS011;9390;51.244;6.982;2024-02-16T11:06:14;6.35;;;2.55;;
18520;SDS011;9390;51.244;6.982;2024-02-16T11:08:48;8.05;;;2.35;;
18520;SDS011;9390;51.244;6.982;2024-02-16T11:11:22;6.63;;;2.70;;
18520;SDS011;9390;51.244;6.982;2024-02-16T11:13:54;10.48;;;3.33;;
18520;SDS011;9390;51.244;6.982;2024-02-16T11:16:27;7.93;;;2.75;;
18520;SDS011;9390;51.244;6.982;2024-02-16T11:18:59;8.25;;;2.63;;
18520;SDS011;9390;51.244;6.982;2024-02-16T11:21:33;7.50;;;2.50;;
18520;SDS011;9390;51.244;6.982;2024-02-16T11:24:06;11.95;;;2.97;;
18520;SDS011;9390;51.244;6.982;2024-02-16T11:26:41;6.10;;;2.33;;
18520;SDS011;9390;51.244;6.982;2024-02-16T11:29:13;8.18;;;2.65;;
18520;SDS011;9390;51.244;6.982;2024-02-16T11:31:46;11.27;;;3.05;;
18520;SDS011;9390;51.244;6.982;2024-02-16T11:34:21;8.13;;;2.50;;
18520;SDS011;9390;51.244;6.982;2024-02-16T11:36:53;8.30;;;2.92;;
18520;SDS011;9390;51.244;6.982;2024-02-16T11:39:25;7.85;;;2.47;;
18520;SDS011;9390;51.244;6.982;2024-02-16T11:42:01;10.73;;;2.55;;
18520;SDS011;9390;51.244;6.982;2024-02-16T11:44:33;6.47;;;2.50;;
18520;SDS011;9390;51.244;6.982;2024-02-16T11:47:07;10.20;;;2.70;;
18520;SDS011;9390;51.244;6.982;2024-02-16T11:49:42;14.55;;;2.85;;
18520;SDS011;9390;51.244;6.982;2024-02-16T11:52:14;8.32;;;2.85;;
18520;SDS011;9390;51.244;6.982;2024-02-16T11:54:45;7.22;;;2.45;;
18520;SDS011;9390;51.244;6.982;2024-02-16T11:57:17;6.38;;;2.58;;
18520;SDS011;9390;51.244;6.982;2024-02-16T11:59:48;5.38;;;2.20;;
18520;SDS011;9390;51.244;6.982;2024-02-16T12:02:23;7.55;;;2.67;;
18520;SDS011;9390;51.244;6.982;2024-02-16T12:04:58;8.80;;;2.80;;
18520;SDS011;9390;51.244;6.982;2024-02-16T12:07:29;7.45;;;3.38;;
18520;SDS011;9390;51.244;6.982;2024-02-16T12:10:03;8.80;;;2.50;;
18520;SDS011;9390;51.244;6.982;2024-02-16T12:12:35;8.75;;;3.00;;
18520;SDS011;9390;51.244;6.982;2024-02-16T12:15:07;9.25;;;3.47;;
18520;SDS011;9390;51.244;6.982;2024-02-16T12:17:40;9.07;;;2.63;;
18520;SDS011;9390;51.244;6.982;2024-02-16T12:20:12;8.50;;;3.53;;
18520;SDS011;9390;51.244;6.982;2024-02-16T12:22:44;9.35;;;3.03;;
18520;SDS011;9390;51.244;6.982;2024-02-16T12:25:15;9.15;;;3.10;;
18520;SDS011;9390;51.244;6.982;2024-02-16T12:27:47;7.82;;;2.88;;
18520;SDS011;9390;51.244;6.982;2024-02-16T12:30:18;8.00;;;3.30;;
18520;SDS011;9390;51.244;6.982;2024-02-16T12:32:51;9.48;;;3.08;;
18520;SDS011;9390;51.244;6.982;2024-02-16T12:35:22;9.18;;;3.05;;
18520;SDS011;9390;51.244;6.982;2024-02-16T12:37:54;8.23;;;3.30;;
18520;SDS011;9390;51.244;6.982;2024-02-16T12:40:29;11.05;;;3.67;;
18520;SDS011;9390;51.244;6.982;2024-02-16T12:43:00;10.35;;;3.58;;
18520;SDS011;9390;51.244;6.982;2024-02-16T12:45:32;11.68;;;3.88;;
18520;SDS011;9390;51.244;6.982;2024-02-16T12:48:05;10.30;;;3.72;;
18520;SDS011;9390;51.244;6.982;2024-02-16T12:50:37;11.40;;;4.03;;
18520;SDS011;9390;51.244;6.982;2024-02-16T12:53:09;11.57;;;4.15;;
18520;SDS011;9390;51.244;6.982;2024-02-16T12:55:40;11.73;;;4.10;;
18520;SDS011;9390;51.244;6.982;2024-02-16T12:58:12;10.93;;;4.68;;
18520;SDS011;9390;51.244;6.982;2024-02-16T13:00:43;10.95;;;4.60;;
18520;SDS011;9390;51.244;6.982;2024-02-16T13:03:16;9.57;;;4.55;;
18520;SDS011;9390;51.244;6.982;2024-02-16T13:05:47;13.25;;;5.13;;
18520;SDS011;9390;51.244;6.982;2024-02-16T13:08:18;9.13;;;4.93;;
18520;SDS011;9390;51.244;6.982;2024-02-16T13:10:50;14.20;;;5.07;;
18520;SDS011;9390;51.244;6.982;2024-02-16T13:13:21;12.82;;;5.78;;
18520;SDS011;9390;51.244;6.982;2024-02-16T13:15:53;12.32;;;5.53;;
18520;SDS011;9390;51.244;6.982;2024-02-16T13:18:27;12.13;;;5.05;;
18520;SDS011;9390;51.244;6.982;2024-02-16T13:20:59;14.20;;;5.28;;
18520;SDS011;9390;51.244;6.982;2024-02-16T13:23:30;13.18;;;5.85;;
18520;SDS011;9390;51.244;6.982;2024-02-16T13:26:01;11.80;;;5.25;;
18520;SDS011;9390;51.244;6.982;2024-02-16T13:28:34;12.57;;;5.40;;
18520;SDS011;9390;51.244;6.982;2024-02-16T13:31:05;14.73;;;5.80;;
18520;SDS011;9390;51.244;6.982;2024-02-16T13:33:38;13.30;;;5.88;;
18520;SDS011;9390;51.244;6.982;2024-02-16T13:36:10;15.38;;;6.35;;
18520;SDS011;9390;51.244;6.982;2024-02-16T13:38:41;12.18;;;5.63;;
18520;SDS011;9390;51.244;6.982;2024-02-16T13:41:12;15.88;;;6.05;;
18520;SDS011;9390;51.244;6.982;2024-02-16T13:43:44;12.60;;;6.22;;
18520;SDS011;9390;51.244;6.982;2024-02-16T13:46:18;15.23;;;6.55;;
18520;SDS011;9390;51.244;6.982;2024-02-16T13:48:51;15.43;;;6.45;;
18520;SDS011;9390;51.244;6.982;2024-02-16T13:51:23;16.15;;;7.18;;
18520;SDS011;9390;51.244;6.982;2024-02-16T13:53:55;14.70;;;7.60;;
18520;SDS011;9390;51.244;6.982;2024-02-16T13:56:26;14.07;;;7.07;;
18520;SDS011;9390;51.244;6.982;2024-02-16T13:58:57;18.23;;;7.30;;
18520;SDS011;9390;51.244;6.982;2024-02-16T14:01:29;13.68;;;7.43;;
18520;SDS011;9390;51.244;6.982;2024-02-16T14:04:02;14.77;;;7.95;;
18520;SDS011;9390;51.244;6.982;2024-02-16T14:06:34;17.88;;;7.95;;
18520;SDS011;9390;51.244;6.982;2024-02-16T14:09:05;16.88;;;7.93;;
18520;SDS011;9390;51.244;6.982;2024-02-16T14:11:38;14.40;;;8.20;;
18520;SDS011;9390;51.244;6.982;2024-02-16T14:14:10;17.17;;;8.57;;
18520;SDS011;9390;51.244;6.982;2024-02-16T14:16:41;13.75;;;8.13;;
18520;SDS011;9390;51.244;6.982;2024-02-16T14:19:14;15.50;;;8.43;;
18520;SDS011;9390;51.244;6.982;2024-02-16T14:21:45;15.93;;;8.55;;
18520;SDS011;9390;51.244;6.982;2024-02-16T14:24:17;17.17;;;8.02;;
18520;SDS011;9390;51.244;6.982;2024-02-16T14:26:48;17.65;;;8.30;;
18520;SDS011;9390;51.244;6.982;2024-02-16T14:29:20;17.13;;;8.45;;
18520;SDS011;9390;51.244;6.982;2024-02-16T14:31:51;14.75;;;7.80;;
18520;SDS011;9390;51.244;6.982;2024-02-16T14:34:24;15.80;;;8.30;;
18520;SDS011;9390;51.244;6.982;2024-02-16T14:36:58;16.05;;;8.20;;
18520;SDS011;9390;51.244;6.982;2024-02-16T14:39:30;13.50;;;7.78;;
18520;SDS011;9390;51.244;6.982;2024-02-16T14:42:01;17.67;;;9.77;;
18520;SDS011;9390;51.244;6.982;2024-02-16T14:44:32;16.52;;;8.52;;
18520;SDS011;9390;51.244;6.982;2024-02-16T14:47:04;15.82;;;8.50;;
18520;SDS011;9390;51.244;6.982;2024-02-16T14:49:36;17.55;;;8.88;;
18520;SDS011;9390;51.244;6.982;2024-02-16T14:52:08;22.60;;;8.80;;
18520;SDS011;9390;51.244;6.982;2024-02-16T14:54:40;15.35;;;8.60;;
18520;SDS011;9390;51.244;6.982;2024-02-16T14:57:12;13.75;;;7.57;;
18520;SDS011;9390;51.244;6.982;2024-02-16T14:59:43;15.02;;;8.10;;
18520;SDS011;9390;51.244;6.982;2024-02-16T15:02:14;18.35;;;9.13;;
18520;SDS011;9390;51.244;6.982;2024-02-16T15:04:47;17.98;;;8.75;;
18520;SDS011;9390;51.244;6.982;2024-02-16T15:07:18;14.40;;;8.50;;
18520;SDS011;9390;51.244;6.982;2024-02-16T15:09:50;20.52;;;8.90;;
18520;SDS011;9390;51.244;6.982;2024-02-16T15:12:21;14.95;;;8.90;;
18520;SDS011;9390;51.244;6.982;2024-02-16T15:14:52;17.77;;;8.70;;
18520;SDS011;9390;51.244;6.982;2024-02-16T15:17:24;18.80;;;8.85;;
18520;SDS011;9390;51.244;6.982;2024-02-16T15:19:57;17.25;;;9.82;;
18520;SDS011;9390;51.244;6.982;2024-02-16T15:22:29;17.27;;;8.73;;
18520;SDS011;9390;51.244;6.982;2024-02-16T15:25:00;15.68;;;8.98;;
18520;SDS011;9390;51.244;6.982;2024-02-16T15:27:32;14.77;;;7.40;;
18520;SDS011;9390;51.244;6.982;2024-02-16T15:30:06;12.80;;;6.65;;
18520;SDS011;9390;51.244;6.982;2024-02-16T15:32:38;16.35;;;7.10;;
18520;SDS011;9390;51.244;6.982;2024-02-16T15:35:11;15.93;;;6.85;;
18520;SDS011;9390;51.244;6.982;2024-02-16T15:37:42;13.70;;;6.78;;